Time;durP1;ratioP1;P1;durP2;ratioP2;P2;SDS_P1;SDS_P2;PMS_P1;PMS_P2;Temp;Humidity;BMP_temperature;BMP_pressure;BME280_temperature;BME280_humidity;BME280_pressure;Samples;Min_cycle;Max_cycle;Signal;HPM_P1;HPM_P2
2022/01/05 00:01:20;;;;;;;5.72;3.05;;;;;;;6.95;81.20;98530.13;5054251;28;20111;-54
2022/01/05 00:03:48;;;;;;;4.10;2.97;;;;;;;6.96;81.02;98529.28;5054468;28;20059;-55
2022/01/05 00:06:16;;;;;;;5.28;3.25;;;;;;;6.98;81.07;98540.47;5019696;28;20488;-55
2022/01/05 00:08:45;;;;;;;4.35;3.08;;;;;;;6.98;80.75;98543.03;5019395;28;20120;-54
2022/01/05 00:11:13;;;;;;;3.35;3.05;;;;;;;6.97;80.66;98543.88;5054213;28;20123;-54
2022/01/05 00:13:44;;;;;;;3.38;2.85;;;;;;;6.93;80.90;98540.41;5054210;28;20029;-54
2022/01/05 00:16:17;;;;;;;5.20;3.03;;;;;;;6.88;81.05;98547.25;5019204;28;20090;-55
2022/01/05 00:18:48;;;;;;;6.72;2.85;;;;;;;6.83;80.84;98548.94;5019759;28;20120;-54
2022/01/05 00:21:16;;;;;;;5.00;2.95;;;;;;;6.82;80.36;98554.94;5036121;28;20041;-55
2022/01/05 00:23:45;;;;;;;5.75;2.60;;;;;;;6.81;80.86;98558.34;5036135;28;20049;-54
2022/01/05 00:26:13;;;;;;;3.63;2.60;;;;;;;6.80;80.63;98554.03;5019471;28;20036;-54
2022/01/05 00:28:38;;;;;;;3.92;2.85;;;;;;;6.76;80.78;98548.03;5054044;28;20040;-55
2022/01/05 00:31:08;;;;;;;6.38;3.45;;;;;;;6.76;80.59;98550.59;5053534;28;20037;-54
2022/01/05 00:33:34;;;;;;;3.70;3.13;;;;;;;6.76;80.66;98560.06;5019830;28;20108;-55
2022/01/05 00:35:59;;;;;;;6.70;3.20;;;;;;;6.72;80.56;98553.16;5053843;28;20049;-54
2022/01/05 00:38:27;;;;;;;5.75;2.90;;;;;;;6.72;80.36;98561.72;5036014;28;20047;-54
2022/01/05 00:40:58;;;;;;;5.85;3.45;;;;;;;6.70;80.14;98555.69;5053708;28;20029;-54
2022/01/05 00:43:30;;;;;;;8.95;3.25;;;;;;;6.68;80.24;98550.53;5020064;28;20041;-54
2022/01/05 00:46:04;;;;;;;3.45;2.97;;;;;;;6.65;80.44;98555.66;5019411;28;20051;-54
2022/01/05 00:48:32;;;;;;;4.28;3.67;;;;;;;6.63;80.32;98559.94;5035885;28;20110;-54
2022/01/05 00:51:05;;;;;;;5.50;3.78;;;;;;;6.58;80.30;98553.91;5053320;28;20037;-54
2022/01/05 00:53:34;;;;;;;11.90;4.45;;;;;;;6.59;80.71;98552.19;5035994;28;20044;-55
2022/01/05 00:56:02;;;;;;;5.60;4.03;;;;;;;6.59;80.65;98547.03;5018969;28;20136;-55
2022/01/05 00:58:28;;;;;;;4.80;4.07;;;;;;;6.59;80.25;98552.19;5053727;28;20094;-55
2022/01/05 01:00:54;;;;;;;8.60;4.95;;;;;;;6.59;80.34;98555.63;5035270;28;20571;-55
2022/01/05 01:03:20;;;;;;;7.70;4.55;;;;;;;6.56;79.86;98560.75;5032195;28;20469;-55
2022/01/05 01:05:48;;;;;;;8.00;4.72;;;;;;;6.50;80.47;98560.69;5051144;28;20032;-54
2022/01/05 01:08:14;;;;;;;8.25;4.85;;;;;;;6.50;80.44;98565.81;5019084;28;20503;-55
2022/01/05 01:10:42;;;;;;;8.35;4.30;;;;;;;6.47;80.06;98565.78;5053251;28;20033;-54
2022/01/05 01:13:17;;;;;;;8.98;5.10;;;;;;;6.42;80.05;98572.63;5019087;28;20033;-54
2022/01/05 01:15:51;;;;;;;7.22;4.45;;;;;;;6.38;80.14;98567.44;5052202;28;20416;-55
2022/01/05 01:18:19;;;;;;;13.55;5.32;;;;;;;6.37;79.99;98570.88;5019046;28;20047;-55
2022/01/05 01:20:45;;;;;;;8.90;4.90;;;;;;;6.34;80.49;98573.41;5035655;28;20048;-55
2022/01/05 01:23:11;;;;;;;8.50;4.57;;;;;;;6.30;80.04;98569.09;5018747;28;20060;-55
2022/01/05 01:25:39;;;;;;;9.13;4.72;;;;;;;6.25;80.21;98565.63;5053050;28;20037;-54
2022/01/05 01:28:06;;;;;;;15.18;5.63;;;;;;;6.22;79.57;98570.72;5018842;28;20381;-54
2022/01/05 01:30:35;;;;;;;13.70;4.35;;;;;;;6.21;80.21;98575.03;5018642;28;20071;-54
2022/01/05 01:33:02;;;;;;;9.27;4.70;;;;;;;6.20;80.11;98573.28;5018693;28;20128;-55
2022/01/05 01:35:27;;;;;;;10.07;4.10;;;;;;;6.16;80.03;98573.22;5052955;28;20459;-55
2022/01/05 01:37:54;;;;;;;11.52;4.60;;;;;;;6.18;80.00;98571.53;5053168;28;20058;-54
2022/01/05 01:40:19;;;;;;;11.90;5.65;;;;;;;6.18;80.25;98584.41;5018968;28;20033;-55
2022/01/05 01:42:46;;;;;;;7.72;4.50;;;;;;;6.16;79.91;98575.78;5053100;28;20084;-55
2022/01/05 01:45:11;;;;;;;13.48;4.75;;;;;;;6.17;79.78;98575.81;5035101;28;20025;-54
2022/01/05 01:47:37;;;;;;;7.80;3.90;;;;;;;6.19;79.61;98575.84;5052956;28;20408;-54
2022/01/05 01:50:04;;;;;;;11.23;4.63;;;;;;;6.16;79.81;98570.66;5053192;28;20408;-54
2022/01/05 01:52:29;;;;;;;11.23;5.22;;;;;;;6.17;79.68;98580.09;5035096;28;20040;-54
2022/01/05 01:54:54;;;;;;;13.02;4.97;;;;;;;6.18;79.58;98582.69;5053141;28;20041;-55
2022/01/05 01:57:21;;;;;;;13.75;4.25;;;;;;;6.17;79.90;98587.81;5052934;28;20523;-55
2022/01/05 01:59:48;;;;;;;12.95;5.25;;;;;;;6.15;79.91;98594.69;5018545;28;20029;-55
2022/01/05 02:02:16;;;;;;;8.40;4.50;;;;;;;6.10;79.69;98594.59;5034657;28;20041;-55
2022/01/05 02:04:43;;;;;;;13.98;4.82;;;;;;;6.07;79.55;98603.16;5034583;28;20060;-54
2022/01/05 02:07:09;;;;;;;12.38;4.65;;;;;;;6.05;79.32;98591.13;5052915;28;20545;-55
2022/01/05 02:09:35;;;;;;;11.63;5.22;;;;;;;6.03;79.17;98596.25;5018620;28;20037;-54
2022/01/05 02:12:01;;;;;;;12.75;4.97;;;;;;;6.01;79.51;98602.22;5018559;28;20039;-54
2022/01/05 02:14:26;;;;;;;9.70;4.38;;;;;;;5.99;79.33;98615.06;5052492;28;20395;-55
2022/01/05 02:16:52;;;;;;;14.43;4.28;;;;;;;6.00;79.65;98627.06;5053057;28;20549;-55
2022/01/05 02:19:18;;;;;;;13.43;4.55;;;;;;;5.99;79.83;98612.47;5052705;28;20484;-55
2022/01/05 02:23:53;;;;;;;12.25;4.60;;;;;;;5.94;79.42;98619.28;5152549;27;20206;-55
2022/01/05 02:26:19;;;;;;;10.45;4.25;;;;;;;5.91;79.29;98622.69;5152400;27;20054;-56
2022/01/05 02:28:44;;;;;;;9.18;4.55;;;;;;;5.91;79.00;98616.66;5152025;27;20039;-55
2022/01/05 02:31:10;;;;;;;9.57;4.00;;;;;;;5.89;79.12;98616.66;5133586;27;20058;-55
2022/01/05 02:33:35;;;;;;;11.07;4.88;;;;;;;5.88;79.20;98625.22;5134284;27;20031;-55
2022/01/05 02:36:01;;;;;;;13.73;4.53;;;;;;;5.88;79.15;98622.63;5134192;27;20035;-56
2022/01/05 02:38:29;;;;;;;10.88;4.70;;;;;;;5.88;79.14;98625.22;5152117;27;20081;-56
2022/01/05 02:40:55;;;;;;;11.35;4.22;;;;;;;5.91;79.45;98632.09;5152321;27;20035;-56
2022/01/05 02:43:21;;;;;;;9.48;4.65;;;;;;;5.93;79.23;98638.97;5152240;27;20038;-56
2022/01/05 02:45:47;;;;;;;12.63;4.72;;;;;;;5.98;79.22;98639.03;5151918;27;20096;-56
2022/01/05 02:48:13;;;;;;;8.93;4.93;;;;;;;5.97;79.76;98668.19;5152641;27;20114;-55
2022/01/05 02:50:38;;;;;;;9.88;4.13;;;;;;;6.01;79.79;98651.09;5133517;27;20113;-56
2022/01/05 02:53:04;;;;;;;11.18;4.78;;;;;;;6.03;79.32;98667.41;5133688;27;20121;-55
2022/01/05 02:55:29;;;;;;;13.93;4.10;;;;;;;6.01;79.53;98667.38;5133185;27;20427;-56
2022/01/05 02:57:55;;;;;;;7.78;4.10;;;;;;;5.98;79.12;98674.16;5151994;27;20088;-55
2022/01/05 03:00:20;;;;;;;11.65;4.75;;;;;;;6.00;79.22;98667.38;5151686;27;20390;-56
2022/01/05 03:02:46;;;;;;;9.75;4.32;;;;;;;5.96;79.24;98671.59;5151576;27;20386;-56
2022/01/05 03:05:11;;;;;;;10.70;5.13;;;;;;;5.95;78.68;98670.72;5151845;27;20510;-55
2022/01/05 03:07:40;;;;;;;9.10;4.20;;;;;;;5.97;79.07;98675.00;5116339;27;20133;-55
2022/01/05 03:10:10;;;;;;;12.80;4.65;;;;;;;5.93;78.72;98677.53;5151717;27;20043;-56
2022/01/05 03:12:38;;;;;;;9.50;5.05;;;;;;;5.92;78.73;98674.97;5115792;27;20035;-56
2022/01/05 03:15:04;;;;;;;11.15;4.57;;;;;;;5.94;79.15;98683.56;5115728;27;20122;-55
2022/01/05 03:17:30;;;;;;;16.38;5.70;;;;;;;5.92;79.20;98690.38;5115903;27;20027;-56
2022/01/05 03:19:56;;;;;;;13.90;4.57;;;;;;;5.90;78.80;98694.66;5167458;27;20394;-56
2022/01/05 03:22:21;;;;;;;6.65;3.97;;;;;;;5.85;78.93;98697.16;5132239;27;20051;-56
2022/01/05 03:24:47;;;;;;;7.03;3.85;;;;;;;5.86;78.63;98706.59;5151225;27;20030;-56
2022/01/05 03:27:12;;;;;;;15.13;5.15;;;;;;;5.84;79.22;98704.88;5132455;27;20063;-56
2022/01/05 03:29:38;;;;;;;12.52;3.67;;;;;;;5.87;78.80;98708.34;5151295;27;20023;-56
2022/01/05 03:32:04;;;;;;;12.98;4.35;;;;;;;5.88;79.37;98719.47;5151533;27;20035;-55
2022/01/05 03:34:31;;;;;;;16.73;6.05;;;;;;;5.88;78.53;98724.63;5141945;27;20424;-54
2022/01/05 03:36:56;;;;;;;10.95;4.25;;;;;;;5.83;78.70;98722.00;5118954;27;20023;-56
2022/01/05 03:39:22;;;;;;;15.60;4.68;;;;;;;5.85;78.59;98722.00;5137344;27;20059;-55
2022/01/05 03:41:48;;;;;;;15.45;4.47;;;;;;;5.84;78.85;98723.72;5118958;27;20035;-55
2022/01/05 03:44:13;;;;;;;9.48;4.22;;;;;;;5.87;79.06;98722.88;5136739;27;20043;-55
2022/01/05 03:46:38;;;;;;;8.68;4.65;;;;;;;5.89;78.63;98734.06;5137192;27;20035;-55
2022/01/05 03:49:04;;;;;;;10.77;4.68;;;;;;;5.88;79.22;98727.19;5137809;27;20039;-55
2022/01/05 03:51:30;;;;;;;10.38;4.18;;;;;;;5.87;78.94;98735.75;5118758;27;20504;-55
2022/01/05 03:53:55;;;;;;;12.52;4.38;;;;;;;5.87;78.50;98740.88;5137080;27;20035;-55
2022/01/05 03:56:21;;;;;;;11.77;4.57;;;;;;;5.86;78.63;98740.03;5136877;27;20131;-55
2022/01/05 03:58:46;;;;;;;11.32;4.43;;;;;;;5.87;78.67;98746.03;5118502;27;20057;-55
2022/01/05 04:01:12;;;;;;;18.08;5.38;;;;;;;5.88;79.13;98755.47;5136668;27;20516;-55
2022/01/05 04:03:37;;;;;;;13.80;4.30;;;;;;;5.84;78.51;98758.88;5136783;27;20031;-55
2022/01/05 04:06:05;;;;;;;11.88;4.30;;;;;;;5.79;78.57;98751.94;5136730;27;20043;-55
2022/01/05 04:08:31;;;;;;;11.23;4.97;;;;;;;5.82;78.20;98755.41;5101320;27;20039;-55
2022/01/05 04:10:57;;;;;;;12.55;4.38;;;;;;;5.83;78.56;98752.00;5136288;27;20046;-55
2022/01/05 04:13:22;;;;;;;15.65;4.50;;;;;;;5.85;78.88;98763.13;5118213;27;20035;-55
2022/01/05 04:15:48;;;;;;;11.43;4.88;;;;;;;5.83;78.69;98768.28;5118351;27;20027;-55
2022/01/05 04:18:14;;;;;;;10.23;3.92;;;;;;;5.82;79.15;98761.41;5137066;27;20076;-55
2022/01/05 04:20:39;;;;;;;11.93;4.45;;;;;;;5.80;78.74;98773.34;5136599;27;20027;-55
2022/01/05 04:23:05;;;;;;;13.02;4.85;;;;;;;5.78;78.81;98767.31;5136315;27;20047;-55
2022/01/05 04:25:32;;;;;;;10.80;4.55;;;;;;;5.75;78.75;98769.88;5136532;27;20046;-55
2022/01/05 04:27:59;;;;;;;17.35;5.22;;;;;;;5.76;78.57;98781.88;5136041;27;20034;-55
2022/01/05 04:30:25;;;;;;;13.20;4.93;;;;;;;5.76;78.56;98777.59;5100650;27;20062;-55
2022/01/05 04:32:50;;;;;;;9.90;4.53;;;;;;;5.79;78.63;98792.19;5136219;27;20493;-55
2022/01/05 04:35:15;;;;;;;10.90;3.97;;;;;;;5.77;78.44;98787.03;5135884;27;20035;-55
2022/01/05 04:37:41;;;;;;;12.23;5.03;;;;;;;5.74;78.58;98779.28;5117880;27;20085;-55
2022/01/05 04:40:11;;;;;;;13.20;4.75;;;;;;;5.76;78.42;98784.47;5100989;27;20023;-55
2022/01/05 04:42:36;;;;;;;12.18;4.32;;;;;;;5.77;78.04;98779.34;5136038;27;20035;-55
2022/01/05 04:45:45;;;;;;;13.18;4.28;;;;;;;5.76;78.51;98787.03;5152932;27;20834;-55
2022/01/05 04:48:11;;;;;;;13.57;4.80;;;;;;;5.73;78.12;98799.84;5152756;27;20070;-56
2022/01/05 04:50:36;;;;;;;15.98;4.25;;;;;;;5.73;78.75;98803.25;5133930;27;20482;-55
2022/01/05 04:53:02;;;;;;;13.20;4.95;;;;;;;5.74;78.03;98802.41;5152262;27;20100;-55
2022/01/05 04:55:27;;;;;;;11.63;4.60;;;;;;;5.75;78.53;98795.59;5152356;27;20091;-55
2022/01/05 04:57:53;;;;;;;14.82;4.78;;;;;;;5.72;78.10;98790.38;5152379;27;20058;-56
2022/01/05 05:00:21;;;;;;;10.50;4.32;;;;;;;5.73;78.30;98803.25;5152270;27;20064;-56
2022/01/05 05:02:48;;;;;;;14.93;5.47;;;;;;;5.72;78.31;98803.25;5134189;27;20455;-56
2022/01/05 05:05:14;;;;;;;14.80;6.18;;;;;;;5.71;78.45;98806.66;5133631;27;20424;-55
2022/01/05 05:07:40;;;;;;;11.70;5.15;;;;;;;5.69;78.59;98809.19;5133811;27;20031;-55
2022/01/05 05:10:06;;;;;;;16.60;6.25;;;;;;;5.69;78.10;98810.91;5151830;27;20525;-56
2022/01/05 05:12:31;;;;;;;14.95;4.82;;;;;;;5.70;78.80;98815.22;5116452;27;20027;-55
2022/01/05 05:14:57;;;;;;;11.60;4.82;;;;;;;5.67;78.67;98818.59;5151759;27;20049;-56
2022/01/05 05:17:23;;;;;;;14.02;5.10;;;;;;;5.68;78.22;98819.44;5116931;27;20056;-56
2022/01/05 05:19:48;;;;;;;16.55;5.45;;;;;;;5.67;78.46;98828.88;5133381;27;20061;-56
2022/01/05 05:22:14;;;;;;;17.00;5.18;;;;;;;5.64;78.38;98829.69;5151897;27;20031;-56
2022/01/05 05:24:39;;;;;;;17.13;5.43;;;;;;;5.66;78.33;98824.59;5151478;27;20033;-55
2022/01/05 05:27:05;;;;;;;11.95;4.93;;;;;;;5.59;77.96;98831.34;5151819;27;20035;-55
2022/01/05 05:29:31;;;;;;;16.98;6.30;;;;;;;5.59;78.24;98822.75;5152173;27;20042;-55
2022/01/05 05:31:56;;;;;;;17.23;6.82;;;;;;;5.54;78.77;98824.34;5151767;27;20026;-56
2022/01/05 05:34:22;;;;;;;17.98;5.43;;;;;;;5.49;78.19;98824.28;5151535;27;20039;-55
2022/01/05 05:36:47;;;;;;;16.75;6.82;;;;;;;5.49;78.58;98832.00;5151317;27;20031;-55
2022/01/05 05:39:13;;;;;;;13.30;4.90;;;;;;;5.49;78.25;98824.28;5151365;27;20070;-56
2022/01/05 05:41:38;;;;;;;18.70;6.38;;;;;;;5.46;77.75;98826.78;5151225;27;20031;-56
2022/01/05 05:44:04;;;;;;;18.92;6.93;;;;;;;5.45;78.28;98828.50;5151221;27;20061;-55
2022/01/05 05:46:29;;;;;;;26.33;6.22;;;;;;;5.40;77.92;98834.41;5151673;27;20073;-56
2022/01/05 05:48:55;;;;;;;16.52;5.78;;;;;;;5.37;77.85;98839.50;5151427;27;20125;-55
2022/01/05 05:51:20;;;;;;;15.02;5.82;;;;;;;5.38;78.39;98839.50;5151528;27;20031;-55
2022/01/05 05:53:46;;;;;;;15.68;5.95;;;;;;;5.40;78.11;98837.84;5132886;27;20477;-55
2022/01/05 05:56:11;;;;;;;14.13;5.93;;;;;;;5.38;77.96;98842.09;5142666;27;20173;-55
2022/01/05 05:58:37;;;;;;;14.90;5.65;;;;;;;5.34;77.70;98836.03;5119705;27;20482;-56
2022/01/05 06:01:05;;;;;;;18.58;5.53;;;;;;;5.28;78.25;98845.34;5137161;27;20557;-56
2022/01/05 06:03:30;;;;;;;14.77;5.68;;;;;;;5.27;77.37;98843.59;5137247;27;20031;-55
2022/01/05 06:05:59;;;;;;;16.80;5.45;;;;;;;5.27;77.71;98833.31;5137077;27;20039;-55
2022/01/05 06:08:24;;;;;;;18.23;5.68;;;;;;;5.18;77.63;98834.03;5101595;27;20031;-55
2022/01/05 06:10:50;;;;;;;19.67;7.25;;;;;;;5.18;77.88;98844.28;5118498;27;20028;-55
2022/01/05 06:13:15;;;;;;;21.00;6.32;;;;;;;5.14;78.09;98856.22;5137363;27;20549;-55
2022/01/05 06:15:41;;;;;;;20.50;5.80;;;;;;;5.15;77.65;98857.97;5136713;27;20039;-55
2022/01/05 06:18:06;;;;;;;16.38;5.60;;;;;;;5.13;77.81;98862.19;5136859;27;20114;-55
2022/01/05 06:20:32;;;;;;;17.50;6.20;;;;;;;5.13;77.94;98861.34;5136962;27;20143;-55
2022/01/05 06:22:59;;;;;;;16.08;6.28;;;;;;;5.14;77.49;98868.19;5118177;27;20036;-56
2022/01/05 06:25:25;;;;;;;13.40;5.35;;;;;;;5.14;77.60;98875.91;5136638;27;20061;-55
2022/01/05 06:27:50;;;;;;;17.83;5.15;;;;;;;5.14;78.12;98876.78;5119149;27;20039;-56
2022/01/05 06:30:19;;;;;;;20.70;6.10;;;;;;;5.11;77.69;98881.00;5118198;27;20494;-55
2022/01/05 06:32:51;;;;;;;23.13;6.07;;;;;;;5.09;78.08;98880.94;5101215;27;20088;-55
2022/01/05 06:35:23;;;;;;;17.88;6.97;;;;;;;5.07;77.47;98886.91;5137102;27;20390;-56
2022/01/05 06:37:55;;;;;;;14.55;4.97;;;;;;;5.08;77.67;98894.63;5118528;27;20035;-55
2022/01/05 06:40:26;;;;;;;12.23;5.05;;;;;;;5.07;77.97;98894.59;5101120;27;20089;-56
2022/01/05 06:42:55;;;;;;;13.23;5.57;;;;;;;5.03;77.33;98904.81;5118046;27;20034;-55
2022/01/05 06:45:23;;;;;;;12.95;5.10;;;;;;;5.05;77.50;98904.88;5136351;27;20409;-55
2022/01/05 06:47:49;;;;;;;13.70;5.00;;;;;;;5.05;77.86;98909.13;5135234;27;20058;-55
2022/01/05 06:50:23;;;;;;;14.35;5.63;;;;;;;5.08;77.86;98910.03;5136141;27;20126;-56
2022/01/05 06:52:56;;;;;;;14.85;5.65;;;;;;;5.05;77.79;98917.69;5136634;27;20039;-55
2022/01/05 06:55:25;;;;;;;13.80;4.80;;;;;;;5.02;77.45;98936.47;5101345;27;20031;-56
2022/01/05 06:57:54;;;;;;;19.02;5.88;;;;;;;4.97;77.89;98927.81;5101011;27;20299;-55
2022/01/05 07:00:23;;;;;;;12.80;5.07;;;;;;;4.98;77.13;98932.09;5100624;27;20045;-55
2022/01/05 07:02:52;;;;;;;12.98;5.88;;;;;;;5.01;77.48;98936.44;5117907;27;20038;-56
2022/01/05 07:05:21;;;;;;;16.88;5.22;;;;;;;4.97;77.89;98938.09;5100626;27;20042;-55
2022/01/05 07:07:49;;;;;;;11.20;4.97;;;;;;;4.95;76.94;98936.31;5116414;27;20480;-56
2022/01/05 07:10:18;;;;;;;17.20;6.40;;;;;;;4.96;77.71;98935.47;5100598;27;20027;-56
2022/01/05 07:12:48;;;;;;;13.82;5.70;;;;;;;4.96;77.41;98935.47;5117542;27;20027;-56
2022/01/05 07:15:19;;;;;;;18.05;5.03;;;;;;;4.98;77.30;98934.66;5100414;27;20510;-55
2022/01/05 07:17:44;;;;;;;18.83;6.03;;;;;;;4.99;77.66;98946.66;5117572;27;20103;-55
2022/01/05 07:20:13;;;;;;;13.65;5.55;;;;;;;4.96;77.64;98946.63;5135482;27;20490;-55
2022/01/05 07:22:44;;;;;;;11.35;4.93;;;;;;;4.97;77.25;98952.63;5117359;27;20083;-56
2022/01/05 07:25:10;;;;;;;13.55;6.03;;;;;;;4.91;77.54;98947.34;5135820;27;20067;-55
2022/01/05 07:27:42;;;;;;;14.05;5.32;;;;;;;4.87;77.17;98943.84;5135523;27;20462;-55
2022/01/05 07:30:14;;;;;;;14.82;6.25;;;;;;;4.88;77.42;98946.47;5117007;27;20444;-55
2022/01/05 07:32:44;;;;;;;15.18;6.00;;;;;;;4.86;77.54;98950.69;5117186;27;20035;-55
2022/01/05 07:35:15;;;;;;;10.10;5.32;;;;;;;4.83;77.56;98940.34;5135829;27;20035;-55
2022/01/05 07:37:43;;;;;;;14.15;6.00;;;;;;;4.84;77.45;98951.47;5135071;27;20046;-55
2022/01/05 07:40:09;;;;;;;13.48;5.80;;;;;;;4.81;76.98;98947.16;5135723;27;20031;-55
2022/01/05 07:42:35;;;;;;;15.77;5.43;;;;;;;4.81;77.58;98949.72;5116780;27;20039;-56
2022/01/05 07:45:11;;;;;;;16.23;6.97;;;;;;;4.81;77.51;98947.16;5135666;27;20042;-55
2022/01/05 07:47:39;;;;;;;14.55;5.57;;;;;;;4.82;77.01;98951.47;5135414;27;20122;-55
2022/01/05 07:50:09;;;;;;;16.15;5.38;;;;;;;4.80;77.24;98957.41;5135109;27;20110;-55
2022/01/05 07:52:34;;;;;;;16.90;5.85;;;;;;;4.80;77.35;98960.81;5099991;27;20129;-55
2022/01/05 07:55:01;;;;;;;14.88;4.65;;;;;;;4.79;77.54;98969.34;5117151;27;20078;-55
2022/01/05 07:57:29;;;;;;;10.70;4.85;;;;;;;4.80;77.65;98981.34;5116510;27;20043;-55
2022/01/05 07:59:57;;;;;;;16.85;5.97;;;;;;;4.79;77.21;98983.91;5135098;27;20084;-55
2022/01/05 08:02:25;;;;;;;13.20;4.68;;;;;;;4.82;77.19;98992.53;5099584;27;20032;-55
2022/01/05 08:04:53;;;;;;;16.75;4.32;;;;;;;4.84;77.65;98990.88;5134915;27;20035;-55
2022/01/05 08:07:24;;;;;;;8.05;4.70;;;;;;;4.83;77.88;98994.28;5134956;27;20031;-55
2022/01/05 08:09:55;;;;;;;11.48;5.43;;;;;;;4.85;77.72;98999.44;5134711;27;20049;-56
2022/01/05 08:12:26;;;;;;;12.43;5.03;;;;;;;4.86;77.35;99008.88;5099326;27;20042;-55
2022/01/05 08:14:55;;;;;;;14.93;5.25;;;;;;;4.83;77.46;99004.53;5099915;27;20039;-55
2022/01/05 08:17:23;;;;;;;14.52;5.88;;;;;;;4.82;77.44;99004.53;5099748;27;20072;-56
2022/01/05 08:19:51;;;;;;;12.15;4.53;;;;;;;4.80;77.04;99019.03;5134404;27;20032;-56
2022/01/05 08:22:16;;;;;;;13.40;5.03;;;;;;;4.79;77.46;99018.13;5098999;27;20062;-56
2022/01/05 08:24:50;;;;;;;14.27;5.53;;;;;;;4.81;77.44;99023.31;5135028;27;20036;-55
2022/01/05 08:27:21;;;;;;;18.05;5.72;;;;;;;4.82;77.11;99033.63;5099176;27;20035;-56
2022/01/05 08:29:54;;;;;;;8.65;4.18;;;;;;;4.78;76.96;99024.09;5116748;27;20031;-55
2022/01/05 08:32:20;;;;;;;14.60;5.47;;;;;;;4.77;77.11;99037.75;5134335;27;20467;-56
2022/01/05 08:34:48;;;;;;;18.38;5.20;;;;;;;4.78;77.31;99038.66;5134341;27;20065;-55
2022/01/05 08:37:19;;;;;;;12.68;4.15;;;;;;;4.80;77.39;99042.97;5134383;27;20035;-55
2022/01/05 08:39:50;;;;;;;13.15;5.05;;;;;;;4.79;76.97;99041.22;5099844;27;20043;-55
2022/01/05 08:42:18;;;;;;;17.80;5.25;;;;;;;4.82;77.42;99048.16;5134851;27;20065;-56
2022/01/05 08:44:49;;;;;;;10.18;4.68;;;;;;;4.83;77.22;99044.72;5134766;28;20043;-55
2022/01/05 08:47:14;;;;;;;17.52;5.90;;;;;;;4.81;77.12;99049.00;5134291;28;20087;-55
2022/01/05 08:49:48;;;;;;;18.33;5.57;;;;;;;4.79;77.70;99054.06;5115958;28;20043;-55
2022/01/05 08:52:16;;;;;;;15.02;4.68;;;;;;;4.78;77.75;99051.47;5116340;28;20039;-55
2022/01/05 08:54:50;;;;;;;11.73;4.22;;;;;;;4.80;76.76;99060.09;5116092;28;20447;-55
2022/01/05 08:57:24;;;;;;;15.93;4.88;;;;;;;4.79;76.90;99064.34;5098774;28;20096;-56
2022/01/05 08:59:57;;;;;;;17.80;5.43;;;;;;;4.79;77.54;99071.19;5115889;28;20031;-55
2022/01/05 09:02:23;;;;;;;13.02;4.57;;;;;;;4.80;77.32;99068.66;5099224;28;20039;-55
2022/01/05 09:04:55;;;;;;;11.45;4.20;;;;;;;4.78;76.64;99061.75;5134160;28;20032;-56
2022/01/05 09:07:28;;;;;;;13.20;5.03;;;;;;;4.79;77.50;99066.06;5098742;28;20031;-55
2022/01/05 09:09:56;;;;;;;15.90;4.95;;;;;;;4.76;77.51;99071.13;5098964;28;20028;-55
2022/01/05 09:12:27;;;;;;;13.35;4.72;;;;;;;4.76;77.24;99071.97;5134290;27;20146;-56
2022/01/05 09:14:58;;;;;;;18.10;5.10;;;;;;;4.73;77.24;99071.91;5098511;28;20031;-56
2022/01/05 09:17:25;;;;;;;12.77;4.53;;;;;;;4.74;76.86;99078.78;5098626;28;20039;-55
2022/01/05 09:19:59;;;;;;;12.13;5.15;;;;;;;4.72;77.44;99071.03;5115969;28;20060;-55
2022/01/05 09:22:28;;;;;;;11.10;4.75;;;;;;;4.72;77.10;99076.16;5134202;28;20096;-56
2022/01/05 09:25:00;;;;;;;17.85;5.60;;;;;;;4.71;76.93;99073.56;5134017;28;20482;-56
2022/01/05 09:27:28;;;;;;;16.40;5.57;;;;;;;4.72;77.18;99075.31;5132425;27;20054;-55
2022/01/05 09:29:59;;;;;;;13.60;4.00;;;;;;;4.73;77.28;99077.06;5098601;27;20502;-56
2022/01/05 09:32:27;;;;;;;15.63;5.15;;;;;;;4.71;76.86;99079.56;5137456;27;20406;-55
2022/01/05 09:34:58;;;;;;;11.82;5.22;;;;;;;4.70;76.76;99080.38;5119284;27;20033;-56
2022/01/05 09:37:34;;;;;;;17.88;5.50;;;;;;;4.69;77.42;99081.22;5137914;27;20159;-55
2022/01/05 09:42:48;;;;;;;12.82;4.57;;;;;;;4.70;77.51;99084.66;5137903;27;20047;-55
2022/01/05 09:45:19;;;;;;;18.50;5.88;;;;;;;4.69;76.89;99095.75;5137500;27;20131;-55
2022/01/05 09:48:25;;;;;;;10.77;4.40;;;;;;;4.70;77.36;99103.50;5102731;27;20398;-56
2022/01/05 09:51:00;;;;;;;15.75;4.95;;;;;;;4.70;77.42;99111.19;5137910;27;20034;-55
2022/01/05 09:53:33;;;;;;;16.00;6.13;;;;;;;4.73;77.31;99118.97;5102332;27;20043;-55
2022/01/05 09:56:06;;;;;;;10.77;4.32;;;;;;;4.74;76.99;99109.59;5137450;27;20104;-55
2022/01/05 09:58:32;;;;;;;11.77;5.18;;;;;;;4.74;76.74;99109.59;5118714;27;20481;-55
2022/01/05 10:00:59;;;;;;;14.95;5.07;;;;;;;4.74;77.18;99101.91;5137082;27;20070;-55
2022/01/05 10:03:25;;;;;;;17.67;5.82;;;;;;;4.75;77.06;99110.44;5118756;27;20035;-56
2022/01/05 10:05:51;;;;;;;19.83;5.32;;;;;;;4.73;76.66;99116.41;5118965;27;20035;-56
2022/01/05 10:08:17;;;;;;;17.83;5.80;;;;;;;4.75;77.27;99125.84;5137274;27;20039;-55
2022/01/05 10:10:43;;;;;;;13.63;5.45;;;;;;;4.76;77.62;99123.31;5101709;27;20035;-56
2022/01/05 10:13:09;;;;;;;14.63;5.22;;;;;;;4.73;76.98;99126.69;5137055;27;20034;-55
2022/01/05 10:15:35;;;;;;;9.30;4.68;;;;;;;4.76;76.82;99130.16;5137359;27;20081;-55
2022/01/05 10:18:10;;;;;;;19.65;6.22;;;;;;;4.73;77.24;99118.13;5102046;27;20096;-55
2022/01/05 10:20:35;;;;;;;12.88;5.90;;;;;;;4.73;77.11;99123.25;5136918;27;20023;-56
2022/01/05 10:23:00;;;;;;;13.35;6.07;;;;;;;4.73;77.02;99123.25;5136905;27;20039;-56
2022/01/05 10:25:26;;;;;;;16.38;5.35;;;;;;;4.71;77.13;99128.34;5118362;27;20486;-55
2022/01/05 10:28:03;;;;;;;14.07;6.13;;;;;;;4.72;76.73;99134.34;5118269;27;20172;-55
2022/01/05 10:30:40;;;;;;;13.43;4.82;;;;;;;4.72;76.76;99148.03;5101436;27;20031;-55
2022/01/05 10:33:07;;;;;;;13.90;5.75;;;;;;;4.74;77.42;99148.09;5118153;27;20135;-56
2022/01/05 10:35:33;;;;;;;18.67;6.28;;;;;;;4.74;77.51;99145.53;5101321;27;20035;-55
2022/01/05 10:38:00;;;;;;;12.30;6.38;;;;;;;4.75;76.82;99157.50;5136805;27;20394;-56
2022/01/05 10:40:33;;;;;;;15.15;5.45;;;;;;;4.74;76.77;99155.81;5101298;27;20038;-55
2022/01/05 10:42:58;;;;;;;13.00;5.60;;;;;;;4.74;77.68;99163.50;5101004;27;20039;-55
2022/01/05 10:45:47;;;;;;;17.02;5.93;;;;;;;4.76;77.37;99168.66;5118075;27;20050;-55
2022/01/05 10:48:22;;;;;;;12.23;4.93;;;;;;;4.75;77.01;99167.78;5152550;27;20035;-56
2022/01/05 10:51:06;;;;;;;15.82;4.82;;;;;;;4.75;77.24;99172.91;5136223;27;20394;-56
2022/01/05 10:53:31;;;;;;;16.58;6.18;;;;;;;4.78;76.96;99162.72;5136458;27;20499;-56
2022/01/05 10:55:57;;;;;;;18.83;7.15;;;;;;;4.79;76.75;99171.31;5136402;27;20115;-55
2022/01/05 10:58:22;;;;;;;12.70;5.38;;;;;;;4.76;76.93;99166.94;5135857;27;20031;-55
2022/01/05 11:00:52;;;;;;;15.68;6.53;;;;;;;4.79;77.77;99184.16;5117740;27;20076;-55
2022/01/05 11:03:39;;;;;;;13.07;6.15;;;;;;;4.76;76.93;99177.22;5100661;27;20039;-56
2022/01/05 11:06:17;;;;;;;13.60;6.38;;;;;;;4.76;77.32;99182.34;5118415;27;20046;-55
2022/01/05 11:08:47;;;;;;;21.95;6.75;;;;;;;4.77;77.04;99185.81;5101445;27;20096;-56
2022/01/05 11:11:32;;;;;;;17.02;5.55;;;;;;;4.76;76.98;99191.78;5117618;27;20031;-56
2022/01/05 11:14:00;;;;;;;15.73;6.22;;;;;;;4.79;76.89;99192.72;5135946;27;20099;-55
2022/01/05 11:16:32;;;;;;;22.50;5.78;;;;;;;4.81;76.96;99198.75;5117166;27;20031;-56
2022/01/05 11:19:17;;;;;;;13.07;5.72;;;;;;;4.82;77.03;99192.78;5136277;27;20138;-55
2022/01/05 11:22:06;;;;;;;17.75;6.72;;;;;;;4.81;76.95;99196.19;5100502;27;20042;-55
2022/01/05 11:24:40;;;;;;;18.33;6.68;;;;;;;4.82;77.26;99191.94;5087385;27;20047;-55
2022/01/05 11:27:16;;;;;;;15.48;5.88;;;;;;;4.80;77.32;99202.16;5100628;27;20049;-56
2022/01/05 11:29:42;;;;;;;11.15;4.85;;;;;;;4.83;77.40;99216.75;5135786;27;20045;-56
2022/01/05 11:32:14;;;;;;;16.05;6.53;;;;;;;4.82;77.07;99197.94;5117710;27;20107;-56
2022/01/05 11:34:42;;;;;;;21.10;5.68;;;;;;;4.82;77.71;99194.50;5134128;27;20041;-56
2022/01/05 11:37:12;;;;;;;19.58;5.63;;;;;;;4.83;77.23;99191.09;5116924;27;20041;-56
2022/01/05 11:39:53;;;;;;;15.40;6.00;;;;;;;4.83;77.08;99201.34;5100032;27;20482;-56
2022/01/05 11:42:48;;;;;;;10.68;5.15;;;;;;;4.84;77.38;99195.38;5116851;27;20459;-55
2022/01/05 11:45:29;;;;;;;14.77;4.88;;;;;;;4.84;77.57;99195.38;5094564;28;20131;-56